Main page
METAR-TAF:

METAR-TAF

Airports :

Tweed New Haven Airport

New Haven, Connecticut, United States

latitude: 41-15-50N, longitude: 072-53-14W, elevation: 13 ft

Current weather observation

The report was made 37 minutes ago, at 17:53 UTC
Wind 25 mph from the West with gusts up to 38 mph
Temperature 43°F
Humidity 42%
Pressure 29.45 in. Hg
Visibility: 10 miles
Few clouds at a height of 4500 ft

METAR: KHVN 271753Z 28022G33KT 10SM FEW045 06/M06 A2945 RMK AO2 PK WND 31035/1728 SLP973 60000 T00561056 10089 20050 51027

Time: 13:30 (18:30 UTC)


TAF: missing

Weather observations and forecasts of more than 4000 airports (METAR and TAF reports).

The available stations are represented by yellow and red dots on the map.

Hover mouse over dot to see the name of the station.

Then click to see weather observations and forecasts.

To change the map : click on the green buttons with a black cross to zoom in, on the green button with a dash to zoom out, or on the green arrows for adjacent maps.


METAR-TAF: